Time;durP1;ratioP1;P1;durP2;ratioP2;P2;SDS_P1;SDS_P2;PMS_P1;PMS_P2;Temp;Humidity;BMP_temperature;BMP_pressure;BME280_temperature;BME280_humidity;BME280_pressure;Samples;Min_cycle;Max_cycle;Signal;HPM_P1;HPM_P2
2023/05/05 00:01:42;;;;;;;10.63;5.50;;;12.90;99.90;;;;;;4942744;28;20056;-88
2023/05/05 00:04:07;;;;;;;9.63;4.80;;;12.90;99.90;;;;;;4959663;28;20119;-88
2023/05/05 00:06:33;;;;;;;14.00;5.35;;;12.90;99.90;;;;;;4959625;28;20055;-88
2023/05/05 00:08:59;;;;;;;9.95;5.43;;;12.90;99.90;;;;;;4928672;28;20093;-88
2023/05/05 00:11:25;;;;;;;10.50;5.55;;;13.00;99.90;;;;;;4930447;28;20096;-88
2023/05/05 00:13:51;;;;;;;9.65;5.70;;;12.90;99.90;;;;;;4926329;28;20054;-87
2023/05/05 00:16:16;;;;;;;10.63;5.15;;;12.90;99.90;;;;;;4960887;28;20507;-89
2023/05/05 00:18:43;;;;;;;10.85;5.90;;;13.00;99.90;;;;;;4927101;28;20534;-87
2023/05/05 00:21:09;;;;;;;11.45;5.50;;;12.90;99.90;;;;;;4957976;28;20488;-88
2023/05/05 00:23:35;;;;;;;8.80;5.28;;;12.90;99.90;;;;;;4910814;28;20049;-87
2023/05/05 00:26:00;;;;;;;10.32;5.47;;;12.80;99.90;;;;;;4942293;28;20121;-88
2023/05/05 00:28:26;;;;;;;12.15;5.45;;;12.90;99.90;;;;;;4942168;28;20057;-88
2023/05/05 00:30:52;;;;;;;11.48;5.15;;;12.80;99.90;;;;;;4958107;28;20054;-87
2023/05/05 00:33:18;;;;;;;11.07;5.70;;;12.80;99.90;;;;;;4958051;28;20047;-88
2023/05/05 00:35:43;;;;;;;10.07;5.82;;;12.80;99.90;;;;;;4925899;28;20051;-88
2023/05/05 00:38:09;;;;;;;10.73;5.60;;;12.70;99.90;;;;;;4958263;28;20051;-88
2023/05/05 00:40:36;;;;;;;10.77;5.80;;;12.70;99.90;;;;;;4926445;28;20454;-88
2023/05/05 00:43:02;;;;;;;10.45;5.57;;;12.70;99.90;;;;;;4973870;28;20046;-87
2023/05/05 00:45:29;;;;;;;9.25;5.40;;;12.70;99.90;;;;;;4942008;28;20186;-87
2023/05/05 00:47:57;;;;;;;10.88;5.65;;;11.70;99.90;;;;;;4957793;28;20566;-89
2023/05/05 00:50:29;;;;;;;9.77;5.50;;;12.50;99.90;;;;;;4957762;28;20058;-87
2023/05/05 00:53:03;;;;;;;9.30;5.47;;;12.70;99.90;;;;;;4958193;28;20051;-86
2023/05/05 00:55:30;;;;;;;10.02;5.80;;;12.70;99.90;;;;;;4957118;28;20046;-87
2023/05/05 00:57:58;;;;;;;11.98;5.55;;;12.60;99.90;;;;;;4957880;28;20053;-88
2023/05/05 01:00:24;;;;;;;9.98;5.70;;;12.60;99.90;;;;;;4957803;28;20093;-87
2023/05/05 01:02:51;;;;;;;8.93;5.40;;;12.60;99.90;;;;;;4957578;28;20063;-86
2023/05/05 01:05:18;;;;;;;12.00;5.68;;;12.60;99.90;;;;;;4957094;28;20054;-86
2023/05/05 01:08:04;;;;;;;11.10;5.78;;;12.50;99.90;;;;;;4943495;28;20047;-86
2023/05/05 01:10:56;;;;;;;9.57;5.47;;;12.50;99.90;;;;;;4945571;28;20047;-86
2023/05/05 01:13:44;;;;;;;9.85;5.65;;;12.40;99.90;;;;;;4946140;29;20125;-85
2023/05/05 01:16:25;;;;;;;9.85;5.60;;;12.40;99.90;;;;;;4926557;29;20062;-86
2023/05/05 01:19:04;;;;;;;9.60;5.18;;;12.40;99.90;;;;;;4942149;29;20047;-84
2023/05/05 01:21:35;;;;;;;8.32;4.78;;;12.40;99.90;;;;;;4942077;29;20062;-87
2023/05/05 01:24:28;;;;;;;9.50;5.40;;;12.40;99.90;;;;;;4942098;29;20062;-86
2023/05/05 01:27:27;;;;;;;10.38;5.07;;;12.40;99.90;;;;;;4941363;29;20055;-86
2023/05/05 01:30:30;;;;;;;8.50;5.10;;;12.40;99.90;;;;;;4926012;29;20039;-86
2023/05/05 01:33:07;;;;;;;9.68;5.20;;;12.40;99.90;;;;;;4941295;29;20058;-85
2023/05/05 01:35:40;;;;;;;7.60;4.82;;;12.40;99.90;;;;;;4926015;29;20042;-86
2023/05/05 01:38:31;;;;;;;9.13;5.50;;;12.30;99.90;;;;;;4941799;29;20047;-86
2023/05/05 01:41:08;;;;;;;11.13;5.18;;;12.30;99.90;;;;;;4941117;29;20039;-87
2023/05/05 01:43:35;;;;;;;9.32;5.50;;;12.40;99.90;;;;;;4958481;28;20058;-87
2023/05/05 01:46:03;;;;;;;9.93;5.05;;;12.30;99.90;;;;;;4960581;28;20410;-86
2023/05/05 01:48:32;;;;;;;9.23;4.95;;;12.30;99.90;;;;;;4960830;28;20055;-86
2023/05/05 01:51:01;;;;;;;10.20;5.25;;;12.20;99.90;;;;;;4960774;28;20054;-86
2023/05/05 01:53:27;;;;;;;10.68;4.97;;;12.20;99.90;;;;;;4960179;28;20042;-87
2023/05/05 01:55:54;;;;;;;9.32;4.70;;;12.20;99.90;;;;;;4944682;28;20077;-87
2023/05/05 01:58:22;;;;;;;11.60;5.10;;;12.30;99.90;;;;;;4960358;28;20495;-86
2023/05/05 02:00:50;;;;;;;8.73;5.15;;;12.30;99.90;;;;;;4960268;28;20108;-86
2023/05/05 02:03:17;;;;;;;11.50;5.50;;;12.30;99.90;;;;;;4960498;28;20047;-87
2023/05/05 02:05:45;;;;;;;10.43;5.30;;;12.20;99.90;;;;;;4960351;28;20129;-87
2023/05/05 02:08:12;;;;;;;10.23;5.20;;;12.10;99.90;;;;;;4960415;28;20411;-88
2023/05/05 02:10:47;;;;;;;10.32;5.50;;;12.20;99.90;;;;;;4913120;28;20051;-87
2023/05/05 02:13:16;;;;;;;10.13;5.30;;;12.10;99.90;;;;;;4945318;28;20059;-88
2023/05/05 02:15:43;;;;;;;10.05;4.70;;;12.10;99.90;;;;;;4928908;28;20399;-86
2023/05/05 02:18:09;;;;;;;10.00;5.07;;;12.20;99.90;;;;;;4959546;28;20483;-86
2023/05/05 02:20:37;;;;;;;10.15;4.85;;;12.20;99.90;;;;;;4944037;28;20509;-86
2023/05/05 02:23:04;;;;;;;8.25;4.97;;;12.10;99.90;;;;;;4959968;28;20426;-85
2023/05/05 02:25:40;;;;;;;10.18;4.85;;;12.10;99.90;;;;;;4959788;28;20046;-84
2023/05/05 02:28:14;;;;;;;10.30;5.10;;;12.10;99.90;;;;;;4944101;28;20050;-86
2023/05/05 02:30:40;;;;;;;9.43;5.03;;;12.10;99.90;;;;;;4943731;28;20496;-86
2023/05/05 02:33:09;;;;;;;9.73;5.22;;;12.00;99.90;;;;;;4959927;28;20085;-84
2023/05/05 02:35:39;;;;;;;9.02;5.13;;;11.90;99.90;;;;;;4959643;28;20407;-86
2023/05/05 02:38:08;;;;;;;11.73;5.50;;;11.90;99.90;;;;;;4943891;28;20129;-86
2023/05/05 02:40:39;;;;;;;9.73;5.32;;;11.90;99.90;;;;;;4959657;28;20503;-85
2023/05/05 02:43:10;;;;;;;8.20;5.30;;;11.90;99.90;;;;;;4959386;28;20058;-86
2023/05/05 02:45:36;;;;;;;9.35;5.63;;;11.80;99.90;;;;;;4959710;28;20053;-86
2023/05/05 02:48:03;;;;;;;9.65;5.30;;;11.80;99.90;;;;;;4959636;28;20047;-85
2023/05/05 02:50:30;;;;;;;10.65;5.47;;;11.80;99.90;;;;;;4959594;28;20054;-85
2023/05/05 02:52:57;;;;;;;9.25;5.20;;;11.80;99.90;;;;;;4959562;28;20494;-86
2023/05/05 02:55:24;;;;;;;10.07;5.50;;;11.80;99.90;;;;;;4959514;28;20054;-84
2023/05/05 02:58:06;;;;;;;9.63;5.47;;;11.80;99.90;;;;;;4959340;28;20055;-86
2023/05/05 03:00:40;;;;;;;8.25;4.35;;;11.80;99.90;;;;;;4943279;28;20050;-86
2023/05/05 03:03:15;;;;;;;10.15;5.70;;;11.70;99.90;;;;;;4942991;28;20131;-86
2023/05/05 03:05:55;;;;;;;9.88;5.72;;;11.70;99.90;;;;;;4959411;28;20234;-86
2023/05/05 03:08:42;;;;;;;10.60;5.63;;;11.70;99.90;;;;;;4959093;28;20043;-86
2023/05/05 03:11:17;;;;;;;10.90;5.32;;;11.70;99.90;;;;;;4959191;28;20134;-85
2023/05/05 03:13:45;;;;;;;9.95;5.80;;;11.60;99.90;;;;;;4958587;28;20406;-86
2023/05/05 03:16:16;;;;;;;9.70;5.68;;;11.60;99.90;;;;;;4959148;28;20458;-85
2023/05/05 03:18:44;;;;;;;10.00;5.72;;;11.60;99.90;;;;;;4958816;28;20122;-85
2023/05/05 03:21:11;;;;;;;11.00;6.07;;;11.60;99.90;;;;;;4942779;28;20081;-85
2023/05/05 03:23:38;;;;;;;9.50;5.55;;;11.50;99.90;;;;;;4943122;28;20101;-84
2023/05/05 03:26:03;;;;;;;9.07;5.60;;;11.50;99.90;;;;;;4927229;28;20046;-85
2023/05/05 03:28:29;;;;;;;11.10;6.10;;;11.40;99.90;;;;;;4942376;28;20042;-85
2023/05/05 03:30:55;;;;;;;9.25;5.65;;;11.30;99.90;;;;;;4942066;28;20081;-85
2023/05/05 03:33:21;;;;;;;11.02;6.18;;;11.30;99.90;;;;;;4958555;28;20414;-85
2023/05/05 03:35:46;;;;;;;10.07;6.07;;;11.20;99.90;;;;;;4926781;28;20042;-85
2023/05/05 03:38:12;;;;;;;8.18;5.60;;;11.30;99.90;;;;;;4942219;28;20046;-85
2023/05/05 03:40:38;;;;;;;11.93;5.88;;;11.20;99.90;;;;;;4958024;28;20042;-85
2023/05/05 03:43:04;;;;;;;9.60;5.70;;;11.30;99.90;;;;;;4958256;28;20043;-87
2023/05/05 03:45:29;;;;;;;10.02;5.50;;;11.40;99.90;;;;;;4942596;28;20101;-86
2023/05/05 03:47:55;;;;;;;10.77;5.88;;;11.50;99.90;;;;;;4942307;28;20046;-85
2023/05/05 03:50:23;;;;;;;9.45;6.05;;;11.40;99.90;;;;;;4958627;28;20133;-85
2023/05/05 03:52:48;;;;;;;9.65;6.00;;;11.40;99.90;;;;;;4958438;28;20058;-85
2023/05/05 03:55:14;;;;;;;9.65;5.55;;;11.40;99.90;;;;;;4957949;28;20078;-86
2023/05/05 03:57:44;;;;;;;11.90;6.10;;;11.40;99.90;;;;;;4941925;28;20142;-84
2023/05/05 04:00:11;;;;;;;10.90;5.93;;;11.50;99.90;;;;;;4942804;28;20053;-85
2023/05/05 04:02:37;;;;;;;10.65;5.70;;;11.50;99.90;;;;;;4942460;28;20050;-85
2023/05/05 04:05:03;;;;;;;10.18;5.90;;;11.50;99.90;;;;;;4942319;28;20078;-84
2023/05/05 04:07:28;;;;;;;11.18;5.93;;;11.50;99.90;;;;;;4958216;28;20145;-84
2023/05/05 04:09:54;;;;;;;10.43;6.03;;;11.50;99.90;;;;;;4958116;28;20039;-85
2023/05/05 04:12:20;;;;;;;10.32;6.20;;;11.40;99.90;;;;;;4957554;28;20108;-85
2023/05/05 04:14:46;;;;;;;13.52;6.13;;;11.50;99.90;;;;;;4926265;28;20133;-85
2023/05/05 04:17:12;;;;;;;10.13;6.93;;;11.40;99.90;;;;;;4957929;28;20094;-84
2023/05/05 04:19:37;;;;;;;17.27;8.73;;;11.50;99.90;;;;;;4942078;28;20046;-78
2023/05/05 04:22:03;;;;;;;23.00;10.60;;;11.30;99.90;;;;;;4942039;28;20050;-78
2023/05/05 04:24:29;;;;;;;25.30;10.52;;;11.30;99.90;;;;;;4975047;28;20069;-79
2023/05/05 04:26:55;;;;;;;24.38;10.55;;;10.90;99.90;;;;;;4957641;28;20097;-80
2023/05/05 04:29:23;;;;;;;19.02;10.38;;;10.70;99.90;;;;;;4957829;28;20047;-81
2023/05/05 04:31:49;;;;;;;15.40;9.88;;;10.50;99.90;;;;;;4941939;28;20105;-81
2023/05/05 04:34:15;;;;;;;17.02;10.18;;;10.50;99.90;;;;;;4941961;28;20050;-81
2023/05/05 04:36:41;;;;;;;17.67;10.30;;;10.40;99.90;;;;;;4957582;28;20112;-82
2023/05/05 04:39:07;;;;;;;16.48;10.43;;;10.40;99.90;;;;;;4941624;28;20097;-82
2023/05/05 04:41:33;;;;;;;18.08;10.68;;;10.40;99.90;;;;;;4957525;28;20133;-82
2023/05/05 04:43:59;;;;;;;20.48;13.75;;;10.30;99.90;;;;;;4941822;28;20069;-83
2023/05/05 04:46:25;;;;;;;16.77;12.32;;;10.20;99.90;;;;;;4957507;28;20232;-82
2023/05/05 04:48:51;;;;;;;18.60;11.77;;;10.00;99.90;;;;;;4957108;28;20416;-81
2023/05/05 04:51:17;;;;;;;17.05;10.82;;;10.00;99.90;;;;;;4941657;28;20082;-81
2023/05/05 04:53:42;;;;;;;17.77;10.55;;;10.00;99.90;;;;;;4957612;28;20086;-81
2023/05/05 04:56:08;;;;;;;15.68;9.68;;;10.00;99.90;;;;;;4957352;28;20054;-81
2023/05/05 04:58:34;;;;;;;14.57;9.73;;;10.10;99.90;;;;;;4957617;28;20047;-81
2023/05/05 05:01:00;;;;;;;14.68;10.48;;;10.20;99.90;;;;;;4957301;28;20046;-80
2023/05/05 05:03:26;;;;;;;13.35;10.57;;;10.20;99.90;;;;;;4957186;28;20376;-80
2023/05/05 05:05:55;;;;;;;17.02;10.55;;;10.20;99.90;;;;;;4941727;28;20109;-80
2023/05/05 05:08:20;;;;;;;18.67;11.63;;;10.30;99.90;;;;;;4941677;28;20061;-80
2023/05/05 05:10:46;;;;;;;14.23;10.35;;;10.20;99.90;;;;;;4957177;28;20047;-80
2023/05/05 05:13:12;;;;;;;16.38;9.60;;;10.10;99.90;;;;;;4941279;28;20137;-80
2023/05/05 05:15:38;;;;;;;13.07;9.75;;;10.20;99.90;;;;;;4957214;28;20043;-80
2023/05/05 05:18:04;;;;;;;13.73;9.70;;;10.20;99.90;;;;;;4957393;28;20050;-80
2023/05/05 05:20:30;;;;;;;13.10;9.48;;;10.30;99.90;;;;;;4956999;28;20122;-80
2023/05/05 05:22:56;;;;;;;14.60;9.40;;;10.30;99.90;;;;;;4957417;28;20055;-80
2023/05/05 05:25:22;;;;;;;12.70;9.15;;;10.40;99.90;;;;;;4941510;28;20554;-80
2023/05/05 05:27:48;;;;;;;13.68;9.50;;;10.40;99.90;;;;;;4925654;28;20086;-80
2023/05/05 05:30:14;;;;;;;13.63;9.43;;;10.50;99.90;;;;;;4956720;28;20085;-80
2023/05/05 05:32:40;;;;;;;11.75;9.15;;;10.60;99.90;;;;;;4957491;28;20051;-80
2023/05/05 05:35:06;;;;;;;12.65;9.90;;;10.50;99.90;;;;;;4957227;28;20547;-80
2023/05/05 05:37:34;;;;;;;12.95;9.77;;;10.50;99.90;;;;;;4941189;28;20446;-80
2023/05/05 05:40:00;;;;;;;13.75;9.93;;;10.40;99.90;;;;;;4957146;28;20098;-80
2023/05/05 05:42:25;;;;;;;16.00;10.70;;;10.40;99.90;;;;;;4957293;28;20055;-80
2023/05/05 05:44:51;;;;;;;14.73;10.25;;;10.50;99.90;;;;;;4956896;28;20577;-80
2023/05/05 05:47:17;;;;;;;14.18;10.73;;;10.50;99.90;;;;;;4957032;28;20061;-80
2023/05/05 05:49:42;;;;;;;14.20;9.70;;;10.50;99.90;;;;;;4941130;28;20467;-80
2023/05/05 05:52:08;;;;;;;13.80;9.45;;;10.60;99.90;;;;;;4957021;28;20526;-80
2023/05/05 05:54:34;;;;;;;12.52;10.60;;;10.60;99.90;;;;;;4944117;28;20395;-81
2023/05/05 05:57:01;;;;;;;13.43;9.68;;;10.70;99.90;;;;;;4960550;28;20047;-80
2023/05/05 05:59:27;;;;;;;13.50;10.38;;;10.80;99.90;;;;;;4944835;28;20046;-81
2023/05/05 06:01:55;;;;;;;15.05;10.43;;;11.00;99.90;;;;;;4960191;28;20395;-81
2023/05/05 06:04:20;;;;;;;13.40;9.77;;;11.10;99.90;;;;;;4960522;28;20062;-81
2023/05/05 06:06:46;;;;;;;12.70;10.40;;;11.20;99.90;;;;;;4928833;28;20042;-81
2023/05/05 06:09:13;;;;;;;12.60;9.18;;;11.30;99.90;;;;;;4960476;28;20054;-80
2023/05/05 06:11:39;;;;;;;11.75;9.63;;;11.30;99.90;;;;;;4944411;28;20050;-80
2023/05/05 06:14:04;;;;;;;15.95;9.80;;;11.40;99.90;;;;;;4959544;28;20059;-80
2023/05/05 06:16:30;;;;;;;14.30;9.30;;;11.40;99.90;;;;;;4960131;28;20055;-81
2023/05/05 06:18:56;;;;;;;12.20;9.60;;;11.50;99.90;;;;;;4930129;28;20105;-81
2023/05/05 06:21:22;;;;;;;14.13;9.63;;;11.50;99.90;;;;;;4945936;28;20094;-81
2023/05/05 06:23:48;;;;;;;12.38;10.00;;;11.50;99.90;;;;;;4957361;28;20047;-81
2023/05/05 06:26:13;;;;;;;14.13;9.80;;;11.50;99.90;;;;;;4940293;28;21130;-81
2023/05/05 06:28:40;;;;;;;13.93;9.98;;;11.60;99.90;;;;;;4944152;28;20059;-81
2023/05/05 06:31:06;;;;;;;13.52;9.60;;;11.70;99.90;;;;;;4960020;28;20484;-81
2023/05/05 06:33:32;;;;;;;13.82;10.60;;;11.70;99.90;;;;;;4959875;28;20050;-81
2023/05/05 06:35:58;;;;;;;12.35;10.30;;;11.80;99.90;;;;;;4944108;28;20042;-81
2023/05/05 06:38:23;;;;;;;13.77;9.05;;;11.90;99.90;;;;;;4928109;28;20051;-81
2023/05/05 06:40:49;;;;;;;13.25;9.00;;;11.90;99.90;;;;;;4959699;28;20396;-80
2023/05/05 06:43:16;;;;;;;12.82;9.30;;;12.10;99.90;;;;;;4943819;28;20141;-81
2023/05/05 06:45:42;;;;;;;15.60;9.57;;;12.20;99.90;;;;;;4959744;28;20085;-81
2023/05/05 06:48:08;;;;;;;12.38;9.48;;;12.20;99.90;;;;;;4959699;28;20133;-81
2023/05/05 06:50:33;;;;;;;11.80;9.50;;;12.20;99.90;;;;;;4959710;28;20194;-80
2023/05/05 06:53:02;;;;;;;14.43;9.88;;;12.20;99.90;;;;;;4959364;28;20053;-81
2023/05/05 06:55:28;;;;;;;13.02;9.43;;;12.30;99.90;;;;;;4959286;28;20487;-80
2023/05/05 06:57:53;;;;;;;13.57;9.40;;;12.30;99.90;;;;;;4943676;28;20065;-80
2023/05/05 07:00:20;;;;;;;13.65;10.00;;;12.40;99.90;;;;;;4958877;28;20043;-80
2023/05/05 07:02:46;;;;;;;13.43;10.48;;;12.50;99.90;;;;;;4959501;28;20146;-80
2023/05/05 07:05:12;;;;;;;16.42;10.95;;;12.50;99.90;;;;;;4958372;28;20467;-80
2023/05/05 07:07:50;;;;;;;13.20;10.02;;;12.60;99.90;;;;;;4958964;28;20051;-80
2023/05/05 07:10:16;;;;;;;15.27;10.05;;;12.80;99.90;;;;;;4976427;28;20043;-80
2023/05/05 07:12:41;;;;;;;14.75;10.55;;;12.90;99.90;;;;;;4942851;28;20503;-80
2023/05/05 07:15:08;;;;;;;13.55;10.25;;;13.00;99.90;;;;;;4891835;28;20093;-80
2023/05/05 07:17:33;;;;;;;16.30;11.60;;;13.10;99.90;;;;;;4958708;28;20055;-80
2023/05/05 07:19:59;;;;;;;12.60;10.57;;;13.20;99.90;;;;;;4958557;28;20047;-80
2023/05/05 07:22:25;;;;;;;14.93;10.45;;;13.50;99.90;;;;;;4958964;28;20407;-80
2023/05/05 07:24:52;;;;;;;16.45;10.60;;;13.90;99.90;;;;;;4942958;28;20051;-80
2023/05/05 07:27:19;;;;;;;14.57;10.25;;;14.30;99.90;;;;;;4922432;29;20046;-80
2023/05/05 07:29:45;;;;;;;15.52;9.88;;;14.70;99.90;;;;;;4939606;29;20050;-81
2023/05/05 07:32:11;;;;;;;13.65;10.68;;;15.10;99.90;;;;;;4923740;29;20055;-81
2023/05/05 07:34:36;;;;;;;14.02;10.00;;;15.20;99.90;;;;;;4923865;29;20061;-81
2023/05/05 07:37:06;;;;;;;14.30;9.23;;;15.40;99.90;;;;;;4939530;29;20047;-81
2023/05/05 07:39:35;;;;;;;13.93;9.98;;;15.60;99.90;;;;;;4956465;29;20051;-80
2023/05/05 07:42:00;;;;;;;13.73;9.80;;;16.00;99.90;;;;;;4943828;28;20553;-80
2023/05/05 07:44:26;;;;;;;15.80;9.70;;;16.20;99.90;;;;;;4942527;28;20054;-82
2023/05/05 07:46:52;;;;;;;13.68;9.70;;;16.10;99.90;;;;;;4958157;28;20050;-81
2023/05/05 07:49:18;;;;;;;14.13;9.90;;;16.30;99.90;;;;;;4958694;28;20047;-82
2023/05/05 07:51:45;;;;;;;17.52;10.00;;;16.80;99.90;;;;;;4942648;28;20050;-82
2023/05/05 07:54:11;;;;;;;13.75;10.05;;;16.50;99.90;;;;;;4958432;28;20055;-82
2023/05/05 07:56:37;;;;;;;12.00;10.10;;;16.90;99.90;;;;;;4958411;28;20043;-81
2023/05/05 07:59:03;;;;;;;13.85;10.02;;;17.20;99.90;;;;;;4942544;28;20066;-81
2023/05/05 08:01:29;;;;;;;11.95;9.45;;;17.50;99.90;;;;;;4926141;28;20443;-81
2023/05/05 08:03:57;;;;;;;13.27;9.88;;;17.60;99.90;;;;;;4942590;28;20051;-81
2023/05/05 08:06:26;;;;;;;14.25;9.82;;;18.00;99.90;;;;;;4926423;28;20062;-81
2023/05/05 08:08:53;;;;;;;14.35;10.52;;;18.70;99.90;;;;;;4942556;28;20065;-81
2023/05/05 08:11:20;;;;;;;11.57;9.27;;;19.10;99.90;;;;;;4956268;28;20403;-81
2023/05/05 08:13:47;;;;;;;13.07;9.50;;;19.20;99.90;;;;;;4956242;28;20512;-82
2023/05/05 08:16:14;;;;;;;14.85;9.95;;;19.30;99.90;;;;;;4957230;28;20057;-81
2023/05/05 08:18:40;;;;;;;13.10;9.77;;;19.30;99.90;;;;;;4958102;28;20453;-81
2023/05/05 08:21:07;;;;;;;14.75;10.38;;;19.70;99.90;;;;;;4941669;28;20051;-81
2023/05/05 08:23:37;;;;;;;11.88;9.68;;;20.20;99.90;;;;;;4957753;28;20125;-81
2023/05/05 08:26:05;;;;;;;14.20;10.13;;;20.70;99.90;;;;;;4956551;28;20057;-81
2023/05/05 08:28:31;;;;;;;14.73;9.95;;;20.80;99.90;;;;;;4957709;28;20384;-81
2023/05/05 08:30:57;;;;;;;14.55;10.50;;;20.90;99.00;;;;;;4941767;28;20054;-81
2023/05/05 08:33:24;;;;;;;13.88;10.18;;;20.90;99.20;;;;;;4942230;28;20093;-81
2023/05/05 08:35:49;;;;;;;13.18;10.55;;;20.80;98.50;;;;;;4957967;28;20133;-81
2023/05/05 08:38:16;;;;;;;15.75;11.48;;;20.90;99.00;;;;;;4957956;28;20503;-81
2023/05/05 08:40:42;;;;;;;13.40;10.63;;;21.10;99.90;;;;;;4957494;28;20047;-81
2023/05/05 08:43:08;;;;;;;12.68;10.10;;;21.50;99.90;;;;;;4941508;28;20056;-79
2023/05/05 08:45:34;;;;;;;13.85;10.82;;;21.70;98.40;;;;;;4957466;28;20050;-80
2023/05/05 08:48:02;;;;;;;12.57;10.60;;;21.60;96.50;;;;;;4957458;28;20057;-80
2023/05/05 08:50:28;;;;;;;15.20;10.88;;;21.60;97.90;;;;;;4957638;28;20047;-80
2023/05/05 08:53:20;;;;;;;15.27;12.07;;;21.70;98.70;;;;;;4955361;28;20082;-81
2023/05/05 08:55:50;;;;;;;;;;;21.80;99.90;;;;;;4970382;28;20090;-81
2023/05/05 08:58:18;;;;;;;12.10;10.70;;;21.90;99.90;;;;;;4955282;28;20008;-81
2023/05/05 09:00:45;;;;;;;14.82;11.45;;;22.10;98.80;;;;;;4957306;28;20043;-81
2023/05/05 09:03:11;;;;;;;15.85;12.02;;;22.30;98.40;;;;;;4941650;28;20061;-81
2023/05/05 09:05:37;;;;;;;14.57;11.27;;;22.40;98.70;;;;;;4957303;28;20057;-81
2023/05/05 09:08:09;;;;;;;15.20;12.43;;;22.60;98.60;;;;;;4956973;28;20042;-81
2023/05/05 09:10:39;;;;;;;12.45;10.73;;;22.50;97.10;;;;;;4957216;28;20664;-81
2023/05/05 09:13:05;;;;;;;14.80;12.02;;;22.30;96.30;;;;;;4956990;28;20082;-81
2023/05/05 09:15:31;;;;;;;17.25;11.38;;;22.50;97.70;;;;;;4957247;28;20055;-81
2023/05/05 09:17:58;;;;;;;16.27;12.38;;;22.60;96.60;;;;;;4956998;28;20059;-81
2023/05/05 09:20:33;;;;;;;13.38;11.57;;;22.60;96.80;;;;;;4941292;28;20402;-81
2023/05/05 09:23:10;;;;;;;12.88;11.45;;;22.30;94.20;;;;;;4957519;28;20376;-81
2023/05/05 09:25:36;;;;;;;13.85;11.43;;;22.20;97.70;;;;;;4957378;28;20051;-81
2023/05/05 09:28:23;;;;;;;13.27;11.30;;;22.50;98.60;;;;;;4958027;28;20046;-81
2023/05/05 09:30:48;;;;;;;13.77;11.35;;;22.80;97.10;;;;;;4961483;28;20434;-82
2023/05/05 09:33:28;;;;;;;14.77;11.98;;;22.90;97.20;;;;;;4961415;28;20388;-81
2023/05/05 09:35:54;;;;;;;14.00;11.88;;;22.80;97.10;;;;;;4961207;28;20129;-81
2023/05/05 09:38:24;;;;;;;13.98;11.48;;;22.60;98.20;;;;;;4962230;28;20078;-81
2023/05/05 09:40:54;;;;;;;14.10;12.15;;;22.60;97.90;;;;;;4961375;28;20050;-81
2023/05/05 09:43:22;;;;;;;13.65;11.52;;;22.70;99.10;;;;;;4961859;28;20509;-81
2023/05/05 09:45:48;;;;;;;13.43;11.27;;;23.00;98.90;;;;;;4961291;28;20411;-81
2023/05/05 09:48:25;;;;;;;14.18;11.88;;;23.50;99.40;;;;;;4929517;28;20049;-82
2023/05/05 09:50:55;;;;;;;12.40;11.10;;;23.70;99.90;;;;;;4944599;28;20062;-82
2023/05/05 09:53:25;;;;;;;13.52;11.23;;;23.90;96.50;;;;;;4944853;28;20128;-81
2023/05/05 09:55:59;;;;;;;14.45;12.13;;;23.80;94.60;;;;;;4945631;28;20137;-82
2023/05/05 09:58:27;;;;;;;14.02;11.70;;;23.50;93.00;;;;;;4961803;28;20046;-83
2023/05/05 10:00:55;;;;;;;15.05;12.05;;;23.10;94.30;;;;;;4946397;28;20447;-83
2023/05/05 10:03:21;;;;;;;14.68;12.40;;;23.10;95.30;;;;;;4961818;28;20046;-82
2023/05/05 10:05:52;;;;;;;14.25;11.23;;;22.90;96.30;;;;;;4962373;28;20110;-82
2023/05/05 10:08:30;;;;;;;15.30;12.85;;;22.60;95.90;;;;;;4961942;28;20122;-82
2023/05/05 10:10:58;;;;;;;17.20;12.82;;;22.60;98.90;;;;;;4945364;28;20047;-84
2023/05/05 10:13:24;;;;;;;15.30;12.18;;;22.50;97.10;;;;;;4960742;28;20081;-84
2023/05/05 10:15:53;;;;;;;15.00;12.77;;;22.30;97.90;;;;;;4960516;28;20054;-84
2023/05/05 10:18:27;;;;;;;15.25;12.70;;;22.20;97.90;;;;;;4961011;28;20051;-85
2023/05/05 10:21:02;;;;;;;16.17;12.27;;;22.20;97.00;;;;;;4945579;28;20047;-84
2023/05/05 10:23:54;;;;;;;16.48;12.60;;;22.20;97.40;;;;;;4959823;28;20051;-84
2023/05/05 10:26:22;;;;;;;17.75;13.63;;;22.10;98.70;;;;;;4961474;28;20055;-84
2023/05/05 10:28:54;;;;;;;17.42;14.02;;;22.10;98.10;;;;;;4960750;28;20555;-84
2023/05/05 10:31:36;;;;;;;17.40;13.40;;;22.40;97.30;;;;;;4960976;28;20058;-85
2023/05/05 10:34:07;;;;;;;16.43;12.63;;;22.80;98.40;;;;;;4960260;28;20058;-85
2023/05/05 10:36:35;;;;;;;16.10;13.55;;;22.90;97.90;;;;;;4944396;28;20298;-84
2023/05/05 10:39:05;;;;;;;14.88;13.13;;;22.90;97.80;;;;;;4959660;28;20118;-85
2023/05/05 10:41:32;;;;;;;16.05;13.77;;;22.90;97.90;;;;;;4944148;28;20407;-85
2023/05/05 10:43:59;;;;;;;13.65;11.52;;;23.10;99.30;;;;;;4960087;28;20097;-85
2023/05/05 10:46:28;;;;;;;14.38;12.80;;;23.00;98.40;;;;;;4960146;28;20168;-86
2023/05/05 10:49:02;;;;;;;14.40;12.65;;;23.00;97.10;;;;;;4928268;28;20046;-85
2023/05/05 10:51:52;;;;;;;14.73;12.90;;;22.90;97.00;;;;;;4943828;28;20102;-85
2023/05/05 10:54:27;;;;;;;15.93;13.32;;;22.70;98.30;;;;;;4959998;28;20042;-85
2023/05/05 10:56:53;;;;;;;17.33;12.77;;;22.50;99.50;;;;;;4959892;28;20055;-85
2023/05/05 10:59:38;;;;;;;15.82;12.18;;;22.40;99.60;;;;;;4959837;28;20376;-85
2023/05/05 11:02:24;;;;;;;13.45;11.65;;;22.30;98.40;;;;;;4959812;28;20059;-85
2023/05/05 11:05:07;;;;;;;16.83;12.70;;;22.30;99.90;;;;;;4945418;28;20442;-85
2023/05/05 11:07:33;;;;;;;15.63;12.15;;;22.50;99.30;;;;;;4964186;28;20134;-85
2023/05/05 11:10:01;;;;;;;12.30;7.72;;;22.60;97.50;;;;;;4962451;28;20076;-86
2023/05/05 11:12:28;;;;;;;9.63;6.60;;;22.80;96.70;;;;;;4944330;28;20054;-86
2023/05/05 11:15:26;;;;;;;10.10;6.55;;;22.90;95.70;;;;;;4980027;28;20113;-86
2023/05/05 11:18:02;;;;;;;10.15;7.20;;;22.50;93.20;;;;;;4952708;28;20059;-86
2023/05/05 11:20:39;;;;;;;11.55;7.70;;;22.60;95.40;;;;;;4959869;28;20566;-85
2023/05/05 11:23:05;;;;;;;11.00;7.43;;;22.80;96.10;;;;;;4975335;28;20047;-87
2023/05/05 11:25:34;;;;;;;10.82;7.60;;;22.90;96.10;;;;;;4959500;28;20055;-86
2023/05/05 11:28:13;;;;;;;11.15;7.55;;;23.00;95.60;;;;;;4959337;28;20051;-86
2023/05/05 11:31:15;;;;;;;10.30;6.00;;;22.90;92.80;;;;;;4959158;28;20082;-87
2023/05/05 11:33:41;;;;;;;10.43;6.60;;;22.80;93.80;;;;;;4960524;28;20054;-86
2023/05/05 11:36:11;;;;;;;11.85;6.95;;;22.70;94.20;;;;;;4960406;28;20046;-87
2023/05/05 11:38:54;;;;;;;8.80;6.17;;;22.70;93.80;;;;;;4959288;28;20107;-86
2023/05/05 11:41:32;;;;;;;9.98;6.18;;;22.60;93.70;;;;;;4943041;28;20078;-86
2023/05/05 11:44:18;;;;;;;9.70;6.10;;;22.50;94.30;;;;;;4963187;28;20051;-86
2023/05/05 11:46:49;;;;;;;7.82;5.72;;;22.40;93.70;;;;;;4977858;28;20057;-86
2023/05/05 11:49:32;;;;;;;9.07;5.63;;;22.30;94.60;;;;;;4959351;28;20057;-86
2023/05/05 11:52:05;;;;;;;8.38;5.00;;;22.30;94.30;;;;;;4966167;28;20050;-87
2023/05/05 11:54:31;;;;;;;7.00;4.68;;;22.00;94.60;;;;;;4943805;28;20062;-86
2023/05/05 11:57:04;;;;;;;9.07;5.05;;;21.90;95.60;;;;;;4975461;28;20047;-86
2023/05/05 11:59:32;;;;;;;8.38;4.90;;;21.90;96.20;;;;;;4943024;28;20054;-87
2023/05/05 12:01:58;;;;;;;9.63;5.03;;;21.90;96.30;;;;;;4942922;28;20432;-86
2023/05/05 12:04:24;;;;;;;8.57;4.50;;;21.90;96.50;;;;;;4958703;28;20090;-86
2023/05/05 12:06:50;;;;;;;8.93;4.28;;;21.90;96.60;;;;;;4960014;28;20511;-86
2023/05/05 12:09:20;;;;;;;7.15;3.90;;;21.90;95.70;;;;;;4960821;28;20086;-87
2023/05/05 12:11:52;;;;;;;7.28;3.75;;;21.70;95.40;;;;;;4974465;28;20098;-86
2023/05/05 12:14:19;;;;;;;7.13;3.97;;;21.70;96.30;;;;;;4958969;28;20047;-85
2023/05/05 12:17:07;;;;;;;8.13;4.20;;;21.60;96.80;;;;;;4942473;28;20050;-86
2023/05/05 12:19:33;;;;;;;8.35;4.50;;;21.50;97.60;;;;;;4958296;28;20134;-85
2023/05/05 12:22:03;;;;;;;9.23;4.80;;;21.40;98.00;;;;;;4958281;28;20050;-85
2023/05/05 12:24:32;;;;;;;7.93;4.60;;;21.30;99.10;;;;;;4958161;28;20097;-86
2023/05/05 12:27:08;;;;;;;8.88;4.53;;;21.20;99.90;;;;;;4958382;28;20043;-86
2023/05/05 12:29:34;;;;;;;9.15;4.20;;;21.10;99.70;;;;;;4942400;28;20430;-86
2023/05/05 12:31:59;;;;;;;7.60;4.15;;;21.10;99.90;;;;;;4942402;28;20181;-85
2023/05/05 12:34:26;;;;;;;8.95;4.28;;;21.00;99.90;;;;;;4942101;28;20054;-85
2023/05/05 12:36:52;;;;;;;7.30;4.00;;;20.90;99.90;;;;;;4943510;28;20518;-85
2023/05/05 12:39:18;;;;;;;7.22;4.10;;;20.80;99.90;;;;;;4959665;28;20051;-84
2023/05/05 12:41:43;;;;;;;8.27;3.80;;;20.60;99.90;;;;;;4958782;28;20057;-85
2023/05/05 12:44:09;;;;;;;5.85;2.65;;;20.50;99.90;;;;;;4959974;28;20090;-85
2023/05/05 12:46:45;;;;;;;5.88;2.20;;;20.40;99.90;;;;;;4942086;28;20062;-85